createdAt,value
2023-08-11T00:00:08.972Z,2.45
2023-08-11T00:02:42.187Z,2.70
2023-08-11T00:05:09.591Z,3.88
2023-08-11T00:07:36.572Z,3.53
2023-08-11T00:10:04.305Z,2.47
2023-08-11T00:12:31.161Z,2.75
2023-08-11T00:14:58.089Z,3.83
2023-08-11T00:17:24.987Z,2.20
2023-08-11T00:19:52.194Z,2.92
2023-08-11T00:22:19.039Z,3.95
2023-08-11T00:24:45.902Z,4.47
2023-08-11T00:27:12.779Z,2.35
2023-08-11T00:29:39.664Z,3.33
2023-08-11T00:32:06.757Z,2.83
2023-08-11T00:34:33.805Z,6.82
2023-08-11T00:37:02.304Z,3.78
2023-08-11T00:39:29.491Z,3.05
2023-08-11T00:41:56.334Z,2.67
2023-08-11T00:44:23.329Z,5.43
2023-08-11T00:46:50.676Z,2.45
2023-08-11T00:49:18.238Z,4.10
2023-08-11T00:51:45.172Z,3.92
2023-08-11T00:54:12.192Z,3.80
2023-08-11T00:56:43.047Z,4.43
2023-08-11T00:59:11.084Z,4.70
2023-08-11T01:01:38.186Z,4.47
2023-08-11T01:04:06.678Z,3.03
2023-08-11T01:06:48.191Z,4.72
2023-08-11T01:09:48.183Z,3.20
2023-08-11T01:12:39.193Z,4.03
2023-08-11T01:15:30.818Z,5.50
2023-08-11T01:17:57.781Z,4.72
2023-08-11T01:20:24.942Z,6.50
2023-08-11T01:22:56.171Z,4.57
2023-08-11T01:25:23.338Z,5.10
2023-08-11T01:27:59.542Z,3.40
2023-08-11T01:30:27.670Z,3.88
2023-08-11T01:32:54.635Z,6.63
2023-08-11T01:35:29.804Z,7.30
2023-08-11T01:38:05.976Z,4.15
2023-08-11T01:40:32.891Z,4.72
2023-08-11T01:43:00.751Z,3.97
2023-08-11T01:45:28.313Z,5.50
2023-08-11T01:47:56.304Z,4.13
2023-08-11T01:50:23.347Z,6.70
2023-08-11T01:52:52.784Z,5.07
2023-08-11T01:55:19.661Z,5.25
2023-08-11T01:57:57.561Z,5.45
2023-08-11T02:00:26.241Z,8.75
2023-08-11T02:02:53.551Z,7.40
2023-08-11T02:05:21.177Z,5.28
2023-08-11T02:07:48.056Z,6.45
2023-08-11T02:10:15.029Z,5.20
2023-08-11T02:12:42.074Z,5.22
2023-08-11T02:15:09.878Z,5.65
2023-08-11T02:17:38.855Z,5.45
2023-08-11T02:20:21.844Z,6.47
2023-08-11T02:22:49.889Z,4.47
2023-08-11T02:25:17.261Z,6.28
2023-08-11T02:27:44.999Z,5.15
2023-08-11T02:30:12.927Z,5.55
2023-08-11T02:32:40.853Z,5.10
2023-08-11T02:35:08.341Z,6.60
2023-08-11T02:37:35.252Z,4.82
2023-08-11T02:40:02.215Z,6.63
2023-08-11T02:42:29.206Z,3.65
2023-08-11T02:44:56.196Z,6.70
2023-08-11T02:47:23.115Z,3.92
2023-08-11T02:49:52.295Z,5.45
2023-08-11T02:52:19.280Z,5.15
2023-08-11T02:54:46.620Z,5.32
2023-08-11T02:57:16.464Z,8.73
2023-08-11T02:59:45.782Z,8.45
2023-08-11T03:02:12.690Z,7.80
2023-08-11T03:04:39.691Z,4.75
2023-08-11T03:07:07.759Z,6.95
2023-08-11T03:09:36.290Z,6.45
2023-08-11T03:12:03.696Z,6.65
2023-08-11T03:14:30.641Z,3.90
2023-08-11T03:16:58.179Z,6.50
2023-08-11T03:19:25.577Z,6.88
2023-08-11T03:21:53.561Z,6.88
2023-08-11T03:24:20.725Z,5.57
2023-08-11T03:26:47.666Z,4.03
2023-08-11T03:29:14.673Z,6.70
2023-08-11T03:31:43.851Z,4.20
2023-08-11T03:34:11.199Z,7.28
2023-08-11T03:36:38.159Z,5.97
2023-08-11T03:39:05.439Z,6.43
2023-08-11T03:41:32.896Z,7.43
2023-08-11T03:44:01.004Z,4.40
2023-08-11T03:46:30.486Z,5.60
2023-08-11T03:48:58.451Z,4.82
2023-08-11T03:51:25.406Z,5.18
2023-08-11T03:53:52.327Z,9.30
2023-08-11T03:56:19.503Z,4.28
2023-08-11T03:58:47.668Z,5.05
2023-08-11T04:01:14.640Z,7.40
2023-08-11T04:03:43.797Z,6.57
2023-08-11T04:06:11.300Z,4.95
2023-08-11T04:08:39.348Z,6.72
2023-08-11T04:11:06.338Z,8.18
2023-08-11T04:13:33.782Z,4.40
2023-08-11T04:16:00.591Z,5.30
2023-08-11T04:18:27.550Z,6.15
2023-08-11T04:20:54.425Z,6.47
2023-08-11T04:23:21.441Z,4.93
2023-08-11T04:25:48.677Z,7.43
2023-08-11T04:28:16.324Z,5.60
2023-08-11T04:30:43.397Z,6.85
2023-08-11T04:33:13.621Z,7.15
2023-08-11T04:35:41.548Z,5.65
2023-08-11T04:38:08.483Z,6.88
2023-08-11T04:40:37.280Z,5.82
2023-08-11T04:43:05.336Z,7.30
2023-08-11T04:45:36.908Z,7.13
2023-08-11T04:48:04.298Z,10.57
2023-08-11T04:50:33.310Z,6.13
2023-08-11T04:53:00.448Z,7.47
2023-08-11T04:55:27.602Z,5.55
2023-08-11T04:57:55.650Z,4.72
2023-08-11T05:00:23.974Z,5.05
2023-08-11T05:02:53.532Z,7.55
2023-08-11T05:05:20.818Z,7.82
2023-08-11T05:07:47.788Z,4.78
2023-08-11T05:10:14.667Z,3.85
2023-08-11T05:12:42.594Z,5.43
2023-08-11T05:15:09.928Z,4.38
2023-08-11T05:17:37.612Z,4.22
2023-08-11T05:20:08.920Z,2.88
2023-08-11T05:22:36.561Z,2.22
2023-08-11T05:25:04.465Z,3.35
2023-08-11T05:27:31.570Z,2.78
2023-08-11T05:29:58.394Z,3.25
2023-08-11T05:32:25.366Z,3.58
2023-08-11T05:34:53.581Z,3.85
2023-08-11T05:37:20.508Z,3.03
2023-08-11T05:39:47.393Z,2.78
2023-08-11T05:42:14.381Z,2.00
2023-08-11T05:44:41.367Z,3.50
2023-08-11T05:47:09.406Z,1.35
2023-08-11T05:49:36.514Z,3.60
2023-08-11T05:52:03.554Z,3.33
2023-08-11T05:54:30.473Z,1.85
2023-08-11T05:56:58.709Z,3.05
2023-08-11T05:59:27.126Z,2.72
2023-08-11T06:01:54.097Z,2.47
2023-08-11T06:04:21.025Z,5.43
2023-08-11T06:06:47.941Z,2.15
2023-08-11T06:09:16.258Z,3.30
2023-08-11T06:11:43.191Z,3.97
2023-08-11T06:14:10.095Z,5.97
2023-08-11T06:16:37.057Z,6.10
2023-08-11T06:19:04.062Z,3.38
2023-08-11T06:21:31.120Z,3.40
2023-08-11T06:23:58.281Z,1.77
2023-08-11T06:26:25.163Z,3.55
2023-08-11T06:28:52.112Z,4.40
2023-08-11T06:31:20.113Z,2.70
2023-08-11T06:33:47.545Z,3.47
2023-08-11T06:36:14.725Z,4.22
2023-08-11T06:38:41.706Z,3.40
2023-08-11T06:41:11.731Z,1.48
2023-08-11T06:43:40.009Z,4.53
2023-08-11T06:46:07.677Z,3.13
2023-08-11T06:48:35.013Z,1.33
2023-08-11T06:51:01.913Z,3.45
2023-08-11T06:53:28.800Z,2.05
2023-08-11T06:55:55.758Z,5.35
2023-08-11T06:58:25.751Z,2.65
2023-08-11T07:00:53.540Z,2.20
2023-08-11T07:03:20.466Z,2.40
2023-08-11T07:05:47.366Z,7.47
2023-08-11T07:08:14.382Z,2.50
2023-08-11T07:10:41.231Z,3.17
2023-08-11T07:13:08.169Z,4.10
2023-08-11T07:15:37.371Z,1.15
2023-08-11T07:18:05.874Z,2.72
2023-08-11T07:20:32.830Z,1.60
2023-08-11T07:22:59.795Z,4.82
2023-08-11T07:25:26.644Z,2.65
2023-08-11T07:27:53.556Z,3.42
2023-08-11T07:30:20.650Z,2.13
2023-08-11T07:32:47.602Z,2.42
2023-08-11T07:35:15.099Z,2.72
2023-08-11T07:37:42.037Z,3.13
2023-08-11T07:40:09.512Z,0.95
2023-08-11T07:42:36.644Z,2.08
2023-08-11T07:45:03.714Z,3.65
2023-08-11T07:47:30.583Z,2.97
2023-08-11T07:49:58.315Z,3.15
2023-08-11T07:52:25.740Z,2.75
2023-08-11T07:54:52.729Z,3.08
2023-08-11T07:57:19.787Z,2.88
2023-08-11T07:59:46.804Z,3.33
2023-08-11T08:02:15.265Z,3.90
2023-08-11T08:04:43.295Z,1.95
2023-08-11T08:07:11.778Z,3.28
2023-08-11T08:09:39.993Z,4.78
2023-08-11T08:12:07.042Z,1.90
2023-08-11T08:14:33.865Z,2.95
2023-08-11T08:17:02.446Z,4.88
2023-08-11T08:19:29.682Z,2.72
2023-08-11T08:21:56.623Z,3.35
2023-08-11T08:24:23.584Z,4.10
2023-08-11T08:26:54.895Z,3.42
2023-08-11T08:29:22.174Z,5.43
2023-08-11T08:31:49.124Z,3.95
2023-08-11T08:34:16.257Z,3.92
2023-08-11T08:36:43.129Z,5.07
2023-08-11T08:39:10.085Z,3.95
2023-08-11T08:41:38.903Z,5.78
2023-08-11T08:44:06.824Z,3.47
2023-08-11T08:46:33.897Z,4.32
2023-08-11T08:49:09.976Z,5.28
2023-08-11T08:51:38.235Z,4.60
2023-08-11T08:54:05.370Z,5.80
2023-08-11T08:56:32.292Z,5.95
2023-08-11T08:58:59.132Z,3.50
2023-08-11T09:01:26.063Z,6.47
2023-08-11T09:03:53.203Z,5.63
2023-08-11T09:06:20.114Z,3.85
2023-08-11T09:08:47.941Z,5.50
2023-08-11T09:11:14.806Z,4.80
2023-08-11T09:13:44.940Z,3.35
2023-08-11T09:16:16.334Z,6.78
2023-08-11T09:18:44.318Z,5.95
2023-08-11T09:21:12.303Z,3.40
2023-08-11T09:23:39.262Z,6.22
2023-08-11T09:26:06.605Z,3.38
2023-08-11T09:28:36.050Z,5.85
2023-08-11T09:31:03.314Z,5.18
2023-08-11T09:33:31.345Z,6.97
2023-08-11T09:35:58.246Z,5.07
2023-08-11T09:38:26.319Z,4.50
2023-08-11T09:41:01.033Z,4.82
2023-08-11T09:43:29.160Z,5.18
2023-08-11T09:46:01.405Z,4.25
2023-08-11T09:48:28.500Z,3.85
2023-08-11T09:50:55.560Z,4.50
2023-08-11T09:53:24.792Z,5.38
2023-08-11T09:55:51.790Z,4.57
2023-08-11T09:58:19.405Z,4.60
2023-08-11T10:00:47.367Z,4.50
2023-08-11T10:03:16.769Z,8.88
2023-08-11T10:05:44.324Z,7.28
2023-08-11T10:08:14.147Z,6.78
2023-08-11T10:10:41.132Z,5.25
2023-08-11T10:13:14.153Z,5.72
2023-08-11T10:15:40.998Z,4.15
2023-08-11T10:18:09.766Z,4.47
2023-08-11T10:20:36.611Z,2.72
2023-08-11T10:23:03.829Z,4.28
2023-08-11T10:25:30.726Z,3.60
2023-08-11T10:27:57.717Z,4.78
2023-08-11T10:30:24.657Z,5.22
2023-08-11T10:32:57.800Z,5.60
2023-08-11T10:38:00.465Z,2.85
2023-08-11T10:40:40.080Z,3.20
2023-08-11T10:43:07.157Z,5.28
2023-08-11T10:45:34.954Z,4.95
2023-08-11T10:48:08.045Z,4.65
2023-08-11T10:53:08.766Z,3.35
2023-08-11T10:55:38.428Z,5.35
2023-08-11T10:58:17.684Z,4.95
2023-08-11T11:00:44.814Z,4.15
2023-08-11T11:03:12.564Z,5.97
2023-08-11T11:05:43.315Z,3.00
2023-08-11T11:08:10.146Z,3.65
2023-08-11T11:10:49.003Z,5.28
2023-08-11T11:13:17.930Z,3.22
2023-08-11T11:15:44.826Z,3.50
2023-08-11T11:18:13.015Z,3.25
2023-08-11T11:20:39.937Z,2.58
2023-08-11T11:23:06.997Z,3.38
2023-08-11T11:25:33.996Z,3.10
2023-08-11T11:28:00.955Z,2.80
2023-08-11T11:30:28.174Z,4.03
2023-08-11T11:32:55.188Z,2.95
2023-08-11T11:35:24.675Z,3.25
2023-08-11T11:37:52.150Z,2.97
2023-08-11T11:40:19.122Z,2.95
2023-08-11T11:42:47.861Z,2.95
2023-08-11T11:45:14.827Z,2.78
2023-08-11T11:47:41.989Z,2.67
2023-08-11T11:50:09.642Z,3.75
2023-08-11T11:52:37.964Z,4.90
2023-08-11T11:55:07.474Z,2.35
2023-08-11T11:57:35.022Z,2.92
2023-08-11T12:00:04.271Z,4.47
2023-08-11T12:02:41.419Z,2.83
2023-08-11T12:05:09.438Z,2.55
2023-08-11T12:07:37.431Z,3.05
2023-08-11T12:10:07.505Z,4.00
2023-08-11T12:12:34.629Z,1.45
2023-08-11T12:15:02.364Z,2.45
2023-08-11T12:17:36.428Z,3.53
2023-08-11T12:20:11.305Z,2.75
2023-08-11T12:22:38.356Z,3.30
2023-08-11T12:25:05.541Z,4.00
2023-08-11T12:27:32.601Z,4.47
2023-08-11T12:29:59.497Z,2.45
2023-08-11T12:32:26.455Z,3.05
2023-08-11T12:34:53.370Z,4.22
2023-08-11T12:37:20.223Z,1.33
2023-08-11T12:39:47.570Z,1.40
2023-08-11T12:42:14.533Z,2.88
2023-08-11T12:44:41.511Z,3.92
2023-08-11T12:47:08.365Z,3.67
2023-08-11T12:49:35.302Z,2.35
2023-08-11T12:52:02.204Z,2.05
2023-08-11T12:54:29.051Z,1.85
2023-08-11T12:56:55.930Z,5.20
2023-08-11T12:59:22.912Z,2.58
2023-08-11T13:01:50.087Z,4.13
2023-08-11T13:04:19.149Z,1.83
2023-08-11T13:06:46.066Z,3.38
2023-08-11T13:09:13.379Z,2.90
2023-08-11T13:11:40.272Z,3.47
2023-08-11T13:14:07.151Z,1.63
2023-08-11T13:16:36.752Z,2.22
2023-08-11T13:19:04.394Z,2.92
2023-08-11T13:21:32.243Z,4.45
2023-08-11T13:24:00.726Z,3.97
2023-08-11T13:26:27.948Z,2.95
2023-08-11T13:28:58.211Z,2.67
2023-08-11T13:31:25.276Z,3.72
2023-08-11T13:33:52.298Z,2.53
2023-08-11T13:36:19.182Z,3.50
2023-08-11T13:38:47.799Z,3.83
2023-08-11T13:41:14.753Z,3.92
2023-08-11T13:43:41.688Z,2.35
2023-08-11T13:46:08.847Z,4.53
2023-08-11T13:48:35.826Z,2.70
2023-08-11T13:51:04.653Z,3.95
2023-08-11T13:53:31.686Z,4.25
2023-08-11T13:55:58.617Z,3.00
2023-08-11T13:58:25.506Z,4.30
2023-08-11T14:00:52.632Z,2.88
2023-08-11T14:03:19.606Z,3.35
2023-08-11T14:05:46.516Z,3.50
2023-08-11T14:08:13.525Z,3.38
2023-08-11T14:10:40.543Z,3.13
2023-08-11T14:13:10.331Z,4.20
2023-08-11T14:15:38.692Z,2.65
2023-08-11T14:18:07.232Z,2.08
2023-08-11T14:20:34.669Z,1.90
2023-08-11T14:23:01.617Z,2.40
2023-08-11T14:25:28.575Z,2.97
2023-08-11T14:27:55.735Z,4.05
2023-08-11T14:30:22.795Z,1.88
2023-08-11T14:32:49.864Z,1.52
2023-08-11T14:35:16.871Z,1.45
2023-08-11T14:37:43.828Z,2.10
2023-08-11T14:40:11.679Z,2.40
2023-08-11T14:42:38.634Z,2.63
2023-08-11T14:45:06.195Z,1.67
2023-08-11T14:47:33.195Z,1.02
2023-08-11T14:50:00.289Z,1.70
2023-08-11T14:52:27.754Z,0.82
2023-08-11T14:54:54.595Z,0.90
2023-08-11T14:57:23.000Z,1.55
2023-08-11T14:59:51.615Z,0.88
2023-08-11T15:02:18.537Z,1.27
2023-08-11T15:04:45.502Z,1.52
2023-08-11T15:07:12.459Z,1.95
2023-08-11T15:09:40.022Z,1.08
2023-08-11T15:12:08.476Z,0.65
2023-08-11T15:14:35.776Z,1.15
2023-08-11T15:17:03.986Z,1.15
2023-08-11T15:19:31.443Z,0.88
2023-08-11T15:21:58.422Z,1.15
2023-08-11T15:24:25.313Z,0.63
2023-08-11T15:26:52.532Z,0.68
2023-08-11T15:29:19.363Z,1.08
2023-08-11T15:31:46.274Z,0.60
2023-08-11T15:34:13.206Z,1.30
2023-08-11T15:36:41.588Z,1.38
2023-08-11T15:39:08.645Z,0.75
2023-08-11T15:41:35.531Z,1.63
2023-08-11T15:44:02.494Z,1.30
2023-08-11T15:46:29.507Z,1.40
2023-08-11T15:48:56.431Z,1.95
2023-08-11T15:51:23.376Z,1.58
2023-08-11T15:53:50.420Z,0.80
2023-08-11T15:56:18.333Z,1.23
2023-08-11T15:58:45.209Z,1.17
2023-08-11T16:01:12.060Z,0.85
2023-08-11T16:03:39.098Z,1.10
2023-08-11T16:06:07.676Z,1.08
2023-08-11T16:08:34.521Z,0.50
2023-08-11T16:11:01.788Z,0.80
2023-08-11T16:13:29.148Z,2.00
2023-08-11T16:15:55.979Z,0.57
2023-08-11T16:18:23.456Z,1.63
2023-08-11T16:20:50.348Z,3.08
2023-08-11T16:23:17.360Z,1.35
2023-08-11T16:25:44.225Z,2.00
2023-08-11T16:28:11.418Z,1.45
2023-08-11T16:30:38.609Z,3.00
2023-08-11T16:33:05.735Z,1.88
2023-08-11T16:35:32.671Z,1.83
2023-08-11T16:37:59.645Z,1.20
2023-08-11T16:40:26.461Z,1.83
2023-08-11T16:42:53.404Z,2.40
2023-08-11T16:45:20.798Z,1.75
2023-08-11T16:47:48.823Z,2.22
2023-08-11T16:50:15.770Z,0.82
2023-08-11T16:52:42.773Z,1.42
2023-08-11T16:55:10.849Z,0.80
2023-08-11T16:57:37.829Z,1.10
2023-08-11T17:00:06.429Z,1.30
2023-08-11T17:02:33.453Z,1.52
2023-08-11T17:05:00.389Z,0.85
2023-08-11T17:07:27.308Z,1.45
2023-08-11T17:09:54.139Z,1.17
2023-08-11T17:12:22.267Z,1.33
2023-08-11T17:14:49.127Z,1.88
2023-08-11T17:17:16.200Z,1.10
2023-08-11T17:19:43.095Z,1.20
2023-08-11T17:22:11.935Z,2.05
2023-08-11T17:24:43.514Z,1.58
2023-08-11T17:27:10.557Z,0.95
2023-08-11T17:29:37.540Z,0.55
2023-08-11T17:32:07.072Z,2.20
2023-08-11T17:34:35.877Z,0.75
2023-08-11T17:37:07.484Z,0.85
2023-08-11T17:39:35.401Z,0.70
2023-08-11T17:42:03.438Z,1.77
2023-08-11T17:44:30.523Z,1.25
2023-08-11T17:46:57.528Z,0.75
2023-08-11T17:49:24.468Z,1.98
2023-08-11T17:51:51.409Z,2.33
2023-08-11T17:54:19.660Z,1.92
2023-08-11T17:56:46.504Z,1.38
2023-08-11T17:59:13.434Z,1.27
2023-08-11T18:01:40.320Z,2.05
2023-08-11T18:04:08.138Z,2.58
2023-08-11T18:06:35.430Z,2.20
2023-08-11T18:09:04.638Z,1.65
2023-08-11T18:11:34.221Z,2.47
2023-08-11T18:14:01.250Z,2.55
2023-08-11T18:16:30.560Z,2.85
2023-08-11T18:18:58.865Z,2.03
2023-08-11T18:21:25.810Z,1.10
2023-08-11T18:23:52.641Z,1.50
2023-08-11T18:26:21.806Z,2.85
2023-08-11T18:28:48.790Z,1.23
2023-08-11T18:31:15.782Z,1.73
2023-08-11T18:33:42.766Z,2.55
2023-08-11T18:36:09.707Z,4.13
2023-08-11T18:38:36.571Z,2.08
2023-08-11T18:41:03.988Z,3.50
2023-08-11T18:43:31.449Z,1.58
2023-08-11T18:45:58.380Z,2.92
2023-08-11T18:48:25.424Z,2.05
2023-08-11T18:50:52.380Z,3.92
2023-08-11T18:53:19.385Z,1.58
2023-08-11T18:55:46.305Z,3.78
2023-08-11T18:58:13.265Z,2.42
2023-08-11T19:00:40.685Z,3.38
2023-08-11T19:03:07.860Z,1.67
2023-08-11T19:05:35.306Z,1.85
2023-08-11T19:08:02.518Z,3.85
2023-08-11T19:10:29.891Z,2.88
2023-08-11T19:12:56.931Z,2.60
2023-08-11T19:15:24.119Z,1.75
2023-08-11T19:17:51.169Z,3.13
2023-08-11T19:20:18.376Z,3.20
2023-08-11T19:22:45.251Z,2.08
2023-08-11T19:25:12.654Z,4.45
2023-08-11T19:27:39.821Z,0.85
2023-08-11T19:30:08.098Z,1.20
2023-08-11T19:32:35.977Z,3.38
2023-08-11T19:35:03.787Z,2.00
2023-08-11T19:37:30.800Z,3.45
2023-08-11T19:39:57.669Z,2.33
2023-08-11T19:42:24.533Z,2.28
2023-08-11T19:44:51.557Z,3.30
2023-08-11T19:47:18.474Z,1.33
2023-08-11T19:49:46.446Z,2.58
2023-08-11T19:52:14.275Z,2.05
2023-08-11T19:54:41.837Z,3.17
2023-08-11T19:57:08.976Z,3.47
2023-08-11T19:59:36.391Z,2.17
2023-08-11T20:02:03.714Z,3.35
2023-08-11T20:04:30.785Z,4.35
2023-08-11T20:06:57.635Z,2.13
2023-08-11T20:09:24.594Z,2.80
2023-08-11T20:11:51.965Z,1.60
2023-08-11T20:14:21.624Z,3.67
2023-08-11T20:16:49.901Z,1.67
2023-08-11T20:19:16.921Z,4.50
2023-08-11T20:21:43.864Z,1.48
2023-08-11T20:24:10.810Z,2.25
2023-08-11T20:26:37.884Z,3.78
2023-08-11T20:29:05.177Z,2.33
2023-08-11T20:31:33.948Z,1.83
2023-08-11T20:34:01.287Z,1.50
2023-08-11T20:36:28.249Z,3.50
2023-08-11T20:38:55.178Z,2.40
2023-08-11T20:41:22.144Z,4.78
2023-08-11T20:43:49.548Z,3.70
2023-08-11T20:46:16.800Z,3.67
2023-08-11T20:48:43.909Z,3.35
2023-08-11T20:51:11.425Z,2.75
2023-08-11T20:53:38.622Z,5.68
2023-08-11T20:56:05.562Z,3.47
2023-08-11T20:58:32.489Z,3.65
2023-08-11T21:00:59.525Z,4.43
2023-08-11T21:03:26.703Z,3.17
2023-08-11T21:05:56.726Z,6.93
2023-08-11T21:08:23.656Z,3.75
2023-08-11T21:10:50.724Z,4.22
2023-08-11T21:13:18.152Z,5.50
2023-08-11T21:15:45.129Z,4.50
2023-08-11T21:18:12.278Z,4.22
2023-08-11T21:20:39.523Z,3.63
2023-08-11T21:23:06.486Z,4.28
2023-08-11T21:25:34.458Z,3.50
2023-08-11T21:28:01.360Z,3.28
2023-08-11T21:30:28.286Z,4.72
2023-08-11T21:32:55.224Z,4.68
2023-08-11T21:35:22.442Z,3.05
2023-08-11T21:37:50.142Z,2.97
2023-08-11T21:40:17.363Z,4.50
2023-08-11T21:42:44.820Z,4.97
2023-08-11T21:45:11.995Z,4.68
2023-08-11T21:47:40.560Z,5.22
2023-08-11T21:50:08.200Z,4.15
2023-08-11T21:52:35.138Z,3.75
2023-08-11T21:55:02.199Z,3.60
2023-08-11T21:57:29.651Z,4.55
2023-08-11T21:59:56.516Z,4.10
2023-08-11T22:02:23.464Z,3.05
2023-08-11T22:04:50.373Z,4.05
2023-08-11T22:07:17.311Z,4.60
2023-08-11T22:09:44.339Z,4.93
2023-08-11T22:12:14.478Z,5.82
2023-08-11T22:14:41.364Z,4.80
2023-08-11T22:17:08.465Z,3.42
2023-08-11T22:19:36.732Z,4.50
2023-08-11T22:22:06.637Z,7.03
2023-08-11T22:24:41.226Z,4.47
2023-08-11T22:27:12.239Z,5.20
2023-08-11T22:29:39.625Z,6.95
2023-08-11T22:32:06.655Z,5.32
2023-08-11T22:34:33.539Z,5.07
2023-08-11T22:37:00.428Z,3.88
2023-08-11T22:39:27.308Z,4.80
2023-08-11T22:41:54.197Z,5.00
2023-08-11T22:44:21.081Z,2.92
2023-08-11T22:46:48.092Z,5.50
2023-08-11T22:49:15.123Z,4.47
2023-08-11T22:51:42.102Z,4.57
2023-08-11T22:54:08.974Z,4.75
2023-08-11T22:56:35.856Z,4.85
2023-08-11T22:59:02.796Z,2.53
2023-08-11T23:01:30.861Z,5.03
2023-08-11T23:03:57.838Z,4.72
2023-08-11T23:06:24.821Z,4.72
2023-08-11T23:08:51.775Z,4.57
2023-08-11T23:11:18.768Z,4.18
2023-08-11T23:13:45.802Z,5.18
2023-08-11T23:16:12.890Z,4.78
2023-08-11T23:18:39.787Z,5.47
2023-08-11T23:21:06.700Z,4.03
2023-08-11T23:23:33.610Z,3.20
2023-08-11T23:26:00.615Z,3.97
2023-08-11T23:28:29.288Z,5.97
2023-08-11T23:30:56.329Z,4.72
2023-08-11T23:33:23.310Z,3.13
2023-08-11T23:35:50.431Z,3.05
2023-08-11T23:38:17.253Z,4.35
2023-08-11T23:40:44.075Z,4.18
2023-08-11T23:43:10.992Z,3.55
2023-08-11T23:45:37.953Z,4.50
2023-08-11T23:48:06.458Z,4.38
2023-08-11T23:50:33.893Z,3.30
2023-08-11T23:53:01.535Z,5.15
2023-08-11T23:55:28.551Z,4.18
2023-08-11T23:57:55.718Z,5.25
